world map with PPK marked

PPK - Airport

This information may not be accurate or current and is not valid for navigation or flight planning. No warranty of fitness for any purpose is made or implied.

flag of Kazakhstan

Donate via PayPal

Additional information is available on the NEW Great Circle Mapper

Location
City:  Petropavl, Soltüstik Qazaqstan, Kazakhstan
Name:Petropavl Airort (Petropavlovsk South Airport)
ICAO / IATA:UACP / PPK

Details
Type:Airport (Aerodrome, Airfield)
Use:Public/Civil
Latitude:54°46'28"N (54.774444)
Longitude:69°11'06"E (69.185000)
Elevation:456 ft (139 m)
Runways:1
Longest:8166 × 138 ft (2489 × 42 m)

Weather
METAR:UACP  041400Z 08010MPS 6000 -SHSN BLSN SCT033CB M26/M29 Q1034 R05/4/0545 NOSIG RMK QFE763/1018
TAF:UACP  (expired)

Related Locations
Nearby:
Farthest:NEMO: 11761 mi / 18927 km
Pacific Ocean [Oceanic Pole of Inaccessibility (Point Nemo)]

Find:

   beyond  
but within

Other Information
Maps:
Links:
Sources:

  


 


Great Circle Mapper   Great Circle Mapper
Great Circle Mapper FAQ   Great Circle Mapper FAQ
  Karl's Home Page
KLS²   KLS² Home
   GC on Facebook
Airlines of the World   Airlines of the World
Donate via PayPal


Copyright © 2004-2020, Karl L. Swartz. All rights reserved.
All trademarks mentioned herein belong to their respective owners.

Please see credits for attribution and copyright information.

Karl Swartz <karl@kls2.com>
  Powered by FreeBSD
Valid HTML 4.01!
Labeled with ICRA
hCard Microformat
Geo Microformat